Time;durP1;ratioP1;P1;durP2;ratioP2;P2;SDS_P1;SDS_P2;PMS_P1;PMS_P2;Temp;Humidity;BMP_temperature;BMP_pressure;BME280_temperature;BME280_humidity;BME280_pressure;Samples;Min_cycle;Max_cycle;Signal;HPM_P1;HPM_P2
2022/12/04 00:01:10;;;;;;;;;36.00;27.50;;;;;4.29;66.65;100680.75;5075685;28;45404;-67
2022/12/04 00:03:35;;;;;;;;;34.80;30.00;;;;;4.15;66.79;100663.28;5076691;27;45252;-66
2022/12/04 00:06:05;;;;;;;;;38.25;30.50;;;;;4.17;66.85;100681.09;5058188;28;47114;-66
2022/12/04 00:08:31;;;;;;;;;30.40;25.40;;;;;4.17;67.37;100682.97;5075800;27;45458;-67
2022/12/04 00:10:56;;;;;;;;;31.00;26.50;;;;;4.16;67.14;100673.97;5076641;28;45474;-67
2022/12/04 00:13:22;;;;;;;;;31.25;26.00;;;;;4.20;67.06;100675.34;5034499;27;45405;-67
2022/12/04 00:15:47;;;;;;;;;32.00;27.00;;;;;4.15;67.55;100660.56;5056228;28;46443;-67
2022/12/04 00:18:13;;;;;;;;;36.25;27.25;;;;;4.23;66.83;100667.84;5056049;28;45349;-67
2022/12/04 00:20:39;;;;;;;;;30.00;25.00;;;;;4.12;67.33;100659.06;5056301;28;45433;-67
2022/12/04 00:23:05;;;;;;;;;32.25;27.00;;;;;4.13;67.14;100668.91;5054993;28;45471;-67
2022/12/04 00:25:31;;;;;;;;;33.60;27.40;;;;;4.24;67.08;100673.13;5038180;28;45324;-67
2022/12/04 00:27:56;;;;;;;;;30.50;25.50;;;;;4.26;66.94;100675.69;5055959;28;45528;-67
2022/12/04 00:30:22;;;;;;;;;39.00;28.75;;;;;4.04;66.70;100643.59;5056253;28;45341;-67
2022/12/04 00:32:47;;;;;;;;;29.00;26.50;;;;;4.17;66.63;100674.84;5071780;28;45262;-67
2022/12/04 00:35:13;;;;;;;;;35.50;25.00;;;;;4.17;67.35;100678.38;5076105;27;45757;-67
2022/12/04 00:37:38;;;;;;;;;24.50;23.50;;;;;4.05;66.88;100639.88;5076605;28;45767;-67
2022/12/04 00:40:05;;;;;;;;;33.50;25.00;;;;;4.24;67.20;100662.25;5075949;27;45460;-68
2022/12/04 00:42:31;;;;;;;;;34.50;27.25;;;;;4.30;67.16;100663.41;5076201;27;45402;-67
2022/12/04 00:44:56;;;;;;;;;33.75;31.00;;;;;3.90;66.91;100607.09;5074421;28;47266;-65
2022/12/04 00:47:22;;;;;;;;;34.50;29.50;;;;;4.34;66.50;100656.63;5074605;28;45489;-65
2022/12/04 00:49:48;;;;;;;;;32.25;27.75;;;;;4.29;66.23;100649.00;5076450;27;45400;-65
2022/12/04 00:52:14;;;;;;;;;32.80;24.40;;;;;4.05;66.42;100623.56;5074974;28;45439;-67
2022/12/04 00:54:39;;;;;;;;;35.00;27.00;;;;;4.28;67.08;100662.75;5076046;28;46051;-65
2022/12/04 00:57:05;;;;;;;;;28.25;26.50;;;;;3.86;67.32;100599.47;5075744;28;45403;-65
2022/12/04 00:59:30;;;;;;;;;31.00;25.00;;;;;4.32;66.78;100664.13;5076127;28;45229;-68
2022/12/04 01:01:56;;;;;;;;;36.50;28.25;;;;;4.38;67.37;100668.84;5076105;27;45222;-68
2022/12/04 01:04:21;;;;;;;;;31.50;26.25;;;;;4.23;66.52;100646.97;5075332;27;46545;-65
2022/12/04 01:06:47;;;;;;;;;33.50;27.75;;;;;4.24;66.54;100650.53;5076015;28;45186;-67
2022/12/04 01:09:12;;;;;;;;;32.00;29.00;;;;;4.25;66.34;100653.06;5075848;28;45388;-67
2022/12/04 01:11:38;;;;;;;;;31.50;28.25;;;;;4.24;66.39;100664.13;5076012;27;45513;-66
2022/12/04 01:14:03;;;;;;;;;36.25;28.25;;;;;4.27;67.23;100658.34;5075614;27;46287;-65
2022/12/04 01:16:32;;;;;;;;;22.50;21.50;;;;;4.32;66.72;100661.41;5075334;27;45228;-66
2022/12/04 01:18:57;;;;;;;;;32.00;29.20;;;;;4.27;67.01;100648.31;5073740;28;45515;-66
2022/12/04 01:21:23;;;;;;;;;32.50;29.00;;;;;4.30;66.74;100658.00;5075155;27;45455;-66
2022/12/04 01:23:48;;;;;;;;;30.25;26.75;;;;;4.27;66.57;100639.31;5073912;28;46049;-66
2022/12/04 01:26:14;;;;;;;;;30.75;27.00;;;;;4.38;67.13;100654.41;5074068;28;45463;-66
2022/12/04 01:28:39;;;;;;;;;31.75;28.50;;;;;4.31;66.68;100637.94;5074287;28;45464;-66
2022/12/04 01:31:10;;;;;;;;;30.75;28.50;;;;;4.23;67.60;100646.97;5075605;27;45441;-66
2022/12/04 01:33:36;;;;;;;;;31.20;26.80;;;;;4.30;67.77;100647.97;5073903;28;46464;-68
2022/12/04 01:36:03;;;;;;;;;32.20;26.20;;;;;4.26;67.85;100646.63;5075071;28;45395;-67
2022/12/04 01:38:28;;;;;;;;;32.40;28.00;;;;;4.31;66.97;100646.09;5073854;28;45407;-67
2022/12/04 01:40:54;;;;;;;;;28.00;23.25;;;;;4.24;67.22;100651.38;5074329;28;45350;-67
2022/12/04 01:43:19;;;;;;;;;24.25;22.50;;;;;4.18;67.38;100650.19;5073976;28;46583;-67
2022/12/04 01:45:46;;;;;;;;;27.75;23.50;;;;;3.89;67.60;100610.84;5075525;27;45426;-67
2022/12/04 01:48:35;;;;;;;;;35.80;29.60;;;;;3.87;67.16;100599.31;5074126;28;45274;-67
2022/12/04 01:51:12;;;;;;;;;40.50;30.25;;;;;4.26;67.45;100656.66;5074226;28;45686;-67
2022/12/04 01:53:39;;;;;;;;;33.60;25.00;;;;;4.19;67.56;100651.91;5073932;28;48844;-65
2022/12/04 01:56:05;;;;;;;;;35.60;28.40;;;;;3.94;67.66;100618.47;5057205;28;45445;-65
2022/12/04 01:58:34;;;;;;;;;30.25;27.00;;;;;4.16;67.58;100660.38;5074973;27;45319;-66
2022/12/04 02:01:03;;;;;;;;;34.25;30.75;;;;;4.17;67.86;100653.09;5074361;28;45441;-66
2022/12/04 02:03:28;;;;;;;;;29.50;25.25;;;;;4.25;67.07;100654.94;5057254;28;45457;-66
2022/12/04 02:05:54;;;;;;;;;36.25;28.25;;;;;4.00;66.97;100625.94;5046199;27;45835;-66
2022/12/04 02:08:19;;;;;;;;;25.25;19.00;;;;;4.00;67.47;100616.97;5070246;27;45692;-66
2022/12/04 02:11:00;;;;;;;;;36.50;29.75;;;;;4.18;67.35;100642.03;5074125;28;45285;-66
2022/12/04 02:13:49;;;;;;;;;40.40;31.60;;;;;4.35;66.67;100658.31;5073997;28;45541;-66
2022/12/04 02:16:25;;;;;;;;;40.00;33.20;;;;;4.34;67.38;100662.06;5073726;28;45380;-66
2022/12/04 02:19:10;;;;;;;;;38.40;33.20;;;;;3.70;67.34;100560.47;5073708;28;45353;-65
2022/12/04 02:21:36;;;;;;;;;42.50;35.00;;;;;4.10;66.94;100641.22;5059057;28;45408;-65
2022/12/04 02:24:13;;;;;;;;;41.20;32.40;;;;;4.23;67.09;100662.41;5056243;28;46689;-66
2022/12/04 02:26:40;;;;;;;;;42.80;28.60;;;;;4.05;67.26;100636.28;5073884;28;45445;-67
2022/12/04 02:29:10;;;;;;;;;37.60;30.20;;;;;4.20;67.69;100645.44;5074950;28;45320;-66
2022/12/04 02:31:41;;;;;;;;;33.00;25.25;;;;;4.11;67.44;100622.00;5074615;28;45580;-65
2022/12/04 02:34:39;;;;;;;;;46.75;36.00;;;;;4.41;66.56;100654.06;5057891;28;46619;-66
2022/12/04 02:37:09;;;;;;;;;25.80;23.60;;;;;4.44;67.29;100648.28;5051825;28;45594;-66
2022/12/04 02:39:43;;;;;;;;;39.20;32.40;;;;;4.44;66.81;100648.28;5056885;28;45421;-66
2022/12/04 02:42:31;;;;;;;;;46.00;35.50;;;;;4.43;67.24;100644.72;5058062;28;45397;-66
2022/12/04 02:44:59;;;;;;;;;30.50;28.50;;;;;4.42;66.78;100651.19;5044303;28;46294;-67
2022/12/04 02:47:24;;;;;;;;;42.00;33.40;;;;;4.40;67.02;100653.22;5039760;28;45507;-67
2022/12/04 02:49:59;;;;;;;;;41.00;34.50;;;;;4.39;67.18;100651.53;5056877;28;45422;-67
2022/12/04 02:52:32;;;;;;;;;34.50;28.00;;;;;4.44;66.77;100654.56;5056599;28;45466;-66
2022/12/04 02:55:01;;;;;;;;;38.80;33.60;;;;;4.52;66.80;100670.00;5039777;28;46255;-66
2022/12/04 02:57:30;;;;;;;;;31.80;29.80;;;;;4.47;66.84;100646.06;5057363;28;45377;-66
2022/12/04 02:59:55;;;;;;;;;42.80;35.20;;;;;4.37;66.46;100637.25;5039866;28;45356;-66
2022/12/04 03:02:28;;;;;;;;;36.50;31.25;;;;;4.49;65.90;100656.78;5039722;28;45641;-66
2022/12/04 03:04:54;;;;;;;;;47.25;37.00;;;;;4.43;66.85;100638.44;5055960;28;46891;-66
2022/12/04 03:07:30;;;;;;;;;36.60;31.40;;;;;4.52;66.26;100641.97;5039058;28;45995;-66
2022/12/04 03:09:58;;;;;;;;;41.80;33.80;;;;;4.47;66.80;100637.91;5039215;28;45334;-67
2022/12/04 03:12:27;;;;;;;;;34.50;32.00;;;;;4.43;66.45;100642.00;5039580;28;45521;-67
2022/12/04 03:15:04;;;;;;;;;42.25;36.00;;;;;4.18;67.14;100597.75;5057383;28;46462;-66
2022/12/04 03:17:32;;;;;;;;;41.20;35.40;;;;;4.27;66.97;100598.56;5055618;28;45959;-66
2022/12/04 03:20:01;;;;;;;;;39.20;35.40;;;;;4.46;67.17;100625.34;5056140;28;45542;-66
2022/12/04 03:22:26;;;;;;;;;33.20;27.80;;;;;4.28;67.35;100586.69;5056185;28;45639;-64
2022/12/04 03:24:53;;;;;;;;;38.75;35.25;;;;;4.48;66.61;100628.72;5056083;28;46006;-64
2022/12/04 03:27:34;;;;;;;;;36.40;33.20;;;;;4.52;66.96;100622.94;5056907;28;45313;-64
2022/12/04 03:30:08;;;;;;;;;42.20;35.20;;;;;4.41;66.85;100618.72;5055880;28;45468;-65
2022/12/04 03:32:41;;;;;;;;;34.00;30.75;;;;;4.46;66.31;100625.34;5064491;28;45541;-61
2022/12/04 03:35:19;;;;;;;;;44.60;34.40;;;;;4.41;66.20;100624.16;5076290;28;46901;-63
2022/12/04 03:37:53;;;;;;;;;43.40;33.00;;;;;4.40;66.35;100631.47;5075524;28;45384;-63
2022/12/04 03:40:38;;;;;;;;;39.40;33.80;;;;;4.29;67.10;100620.97;5077341;28;45459;-63
2022/12/04 03:43:07;;;;;;;;;40.75;37.50;;;;;4.18;66.86;100608.59;5075163;28;45424;-62
2022/12/04 03:45:46;;;;;;;;;38.60;31.60;;;;;4.30;66.87;100622.66;5075163;28;46819;-63
2022/12/04 03:48:17;;;;;;;;;44.80;30.00;;;;;4.25;66.64;100617.75;5077174;27;45486;-62
2022/12/04 03:50:59;;;;;;;;;39.40;34.00;;;;;4.31;66.98;100616.19;5075800;28;45333;-63
2022/12/04 03:53:26;;;;;;;;;44.00;34.50;;;;;4.25;66.79;100600.59;5059035;28;45452;-63
2022/12/04 03:56:10;;;;;;;;;43.50;36.00;;;;;4.30;67.31;100599.06;5058703;28;47560;-63
2022/12/04 03:58:41;;;;;;;;;33.60;28.00;;;;;4.33;67.24;100597.88;5075271;28;45294;-63
2022/12/04 04:01:06;;;;;;;;;32.00;28.60;;;;;4.35;67.34;100582.22;5059507;28;45360;-64
2022/12/04 04:03:38;;;;;;;;;33.00;26.25;;;;;3.96;66.79;100526.84;5075578;28;45946;-66
2022/12/04 04:06:07;;;;;;;;;40.80;32.40;;;;;4.31;67.45;100559.13;5076387;28;45797;-64
2022/12/04 04:08:34;;;;;;;;;43.60;36.60;;;;;4.10;67.15;100519.81;5075188;28;45540;-64
2022/12/04 04:11:01;;;;;;;;;30.60;28.00;;;;;4.26;67.76;100558.84;5075505;28;45452;-63
2022/12/04 04:24:35;;;;;;;;;43.75;36.00;;;;;4.14;67.76;100548.34;5061059;28;45529;-63
2022/12/04 04:27:01;;;;;;;;;33.60;28.60;;;;;4.14;67.58;100542.03;5076033;27;45689;-63
2022/12/04 04:29:26;;;;;;;;;42.50;34.50;;;;;4.10;67.59;100557.03;5075120;28;45299;-62
2022/12/04 04:32:01;;;;;;;;;34.75;32.25;;;;;4.11;67.08;100562.25;5073307;27;45147;-63
2022/12/04 04:34:57;;;;;;;;;33.75;30.50;;;;;4.14;67.43;100566.50;5056250;28;45356;-64
2022/12/04 04:37:53;;;;;;;;;35.60;31.80;;;;;4.11;67.67;100567.69;5055860;28;46869;-63
2022/12/04 04:40:25;;;;;;;;;25.80;22.20;;;;;4.10;67.77;100571.44;5056084;28;45390;-64
2022/12/04 04:42:59;;;;;;;;;39.80;35.40;;;;;4.09;67.46;100548.00;5038622;28;45353;-63
2022/12/04 04:46:05;;;;;;;;;14.25;12.75;;;;;4.13;67.27;100557.53;5056408;28;45561;-64
2022/12/04 04:48:35;;;;;;;;;43.60;39.00;;;;;3.80;67.92;100516.84;5055506;28;46924;-63
2022/12/04 04:51:01;;;;;;;;;36.40;34.40;;;;;4.09;67.48;100574.31;5038342;28;45340;-66
2022/12/04 04:53:34;;;;;;;;;32.60;32.40;;;;;4.10;67.99;100559.72;5054595;28;45584;-66
2022/12/04 04:56:00;;;;;;;;;36.50;31.00;;;;;4.14;67.71;100556.50;5044022;27;45643;-63
2022/12/04 04:58:25;;;;;;;;;40.40;33.40;;;;;4.28;67.33;100562.22;5031674;28;46138;-63
2022/12/04 05:00:57;;;;;;;;;44.50;38.50;;;;;4.27;67.09;100560.53;5075535;28;45393;-62
2022/12/04 05:03:23;;;;;;;;;41.00;35.40;;;;;4.23;67.70;100567.31;5076288;27;45262;-63
2022/12/04 05:05:49;;;;;;;;;39.60;31.40;;;;;4.26;67.06;100558.84;5074796;28;45455;-63
2022/12/04 05:08:14;;;;;;;;;40.50;32.00;;;;;4.26;67.48;100559.66;5075689;28;46105;-65
2022/12/04 05:10:40;;;;;;;;;32.75;22.50;;;;;4.30;66.84;100571.91;5076122;27;45257;-65
2022/12/04 05:13:06;;;;;;;;;44.75;33.50;;;;;4.25;66.80;100578.84;5074449;28;45274;-65
2022/12/04 05:15:32;;;;;;;;;45.75;38.50;;;;;4.18;67.92;100574.13;5076407;27;45424;-65
2022/12/04 05:17:57;;;;;;;;;35.75;34.25;;;;;4.19;67.19;100564.09;5074265;28;46704;-63
2022/12/04 05:20:22;;;;;;;;;50.00;34.75;;;;;4.23;67.10;100570.03;5075598;27;45395;-65
2022/12/04 05:22:48;;;;;;;;;41.25;32.50;;;;;4.25;67.52;100570.69;5075986;27;45385;-65
2022/12/04 05:25:13;;;;;;;;;48.25;38.25;;;;;4.16;67.30;100561.75;5075776;27;45511;-65
2022/12/04 05:27:39;;;;;;;;;48.75;39.00;;;;;4.13;67.52;100576.53;5074387;28;46700;-65
2022/12/04 05:30:05;;;;;;;;;45.50;35.25;;;;;4.17;67.74;100585.19;5075369;27;45387;-63
2022/12/04 05:32:30;;;;;;;;;40.40;28.00;;;;;4.25;67.76;100574.28;5075624;27;45459;-64
2022/12/04 05:34:56;;;;;;;;;44.75;38.25;;;;;4.26;68.01;100580.56;5057211;28;45463;-63
2022/12/04 05:37:22;;;;;;;;;39.75;33.00;;;;;4.26;67.08;100583.28;5075423;27;46871;-65
2022/12/04 05:39:47;;;;;;;;;44.50;31.50;;;;;4.31;67.74;100591.75;5090889;27;45236;-65
2022/12/04 05:42:13;;;;;;;;;35.25;32.00;;;;;4.34;67.64;100594.13;5073602;28;45331;-63
2022/12/04 05:44:38;;;;;;;;;35.00;28.50;;;;;4.39;67.10;100599.91;5075299;28;45334;-63
2022/12/04 05:47:04;;;;;;;;;44.00;36.75;;;;;4.31;67.51;100608.06;5075088;28;45752;-64
2022/12/04 05:49:31;;;;;;;;;37.50;34.75;;;;;4.24;67.14;100604.34;5075250;27;45530;-63
2022/12/04 05:51:56;;;;;;;;;40.60;35.60;;;;;4.31;67.63;100610.78;5075662;27;45501;-62
2022/12/04 05:54:21;;;;;;;;;47.50;35.50;;;;;4.33;67.28;100614.19;5074893;27;45388;-62
2022/12/04 05:56:47;;;;;;;;;35.50;34.00;;;;;4.30;67.61;100612.66;5075184;27;46338;-62
2022/12/04 05:59:13;;;;;;;;;42.75;35.75;;;;;4.38;67.39;100608.22;5074954;28;45718;-62
2022/12/04 06:01:38;;;;;;;;;41.50;35.75;;;;;4.44;66.75;100619.22;5073714;28;45742;-62
2022/12/04 06:04:04;;;;;;;;;42.00;34.50;;;;;4.38;67.31;100616.38;5065594;27;45411;-62
2022/12/04 06:06:29;;;;;;;;;46.25;34.25;;;;;3.89;66.92;100537.53;5073892;27;46223;-62
2022/12/04 06:08:56;;;;;;;;;35.00;33.50;;;;;4.25;67.38;100606.03;5073995;27;45423;-63
2022/12/04 06:11:23;;;;;;;;;40.20;36.20;;;;;4.22;67.58;100618.13;5056648;28;45321;-62
2022/12/04 06:13:49;;;;;;;;;45.60;37.20;;;;;4.23;67.23;100613.50;5075066;27;45460;-62
2022/12/04 06:16:22;;;;;;;;;28.00;23.00;;;;;3.97;67.11;100558.41;5074738;28;45820;-62
2022/12/04 06:18:51;;;;;;;;;45.60;33.40;;;;;4.29;67.63;100604.66;5073571;28;45365;-65
2022/12/04 06:21:17;;;;;;;;;31.40;27.60;;;;;4.37;67.04;100615.50;5073703;28;45532;-63
2022/12/04 06:23:42;;;;;;;;;45.25;37.25;;;;;3.93;67.62;100557.03;5072939;28;45452;-64
2022/12/04 06:26:08;;;;;;;;;43.25;36.75;;;;;4.33;66.99;100616.91;5073718;28;46040;-62
2022/12/04 06:28:34;;;;;;;;;36.75;32.00;;;;;4.29;67.41;100596.53;5074132;28;45424;-61
2022/12/04 06:31:03;;;;;;;;;48.00;36.00;;;;;4.25;67.61;100587.88;5073330;28;45422;-64
2022/12/04 06:33:29;;;;;;;;;44.40;35.00;;;;;4.26;67.45;100619.44;5061698;27;45360;-63
2022/12/04 06:36:06;;;;;;;;;36.75;36.25;;;;;4.20;67.47;100610.13;5053889;28;45710;-64
2022/12/04 06:38:31;;;;;;;;;36.40;34.60;;;;;4.22;68.48;100611.81;5036183;28;45639;-66
2022/12/04 06:40:57;;;;;;;;;43.00;37.25;;;;;4.15;67.54;100615.22;5036386;28;45508;-65
2022/12/04 06:43:22;;;;;;;;;49.50;39.25;;;;;4.02;68.02;100585.03;5053284;28;45421;-65
2022/12/04 06:45:48;;;;;;;;;47.25;33.50;;;;;4.29;67.54;100631.84;5036085;28;46035;-65
2022/12/04 06:48:14;;;;;;;;;44.00;37.75;;;;;4.34;67.41;100627.56;5053072;28;45412;-64
2022/12/04 06:50:39;;;;;;;;;39.25;36.25;;;;;4.15;67.68;100595.34;5053830;28;45488;-65
2022/12/04 06:53:05;;;;;;;;;49.25;39.75;;;;;4.06;67.20;100572.81;5053018;28;45383;-65
2022/12/04 06:55:30;;;;;;;;;39.25;30.25;;;;;4.27;68.10;100606.72;5035792;28;45899;-64
2022/12/04 06:57:55;;;;;;;;;41.00;37.00;;;;;4.34;67.12;100626.75;5053879;28;45463;-65
2022/12/04 07:00:21;;;;;;;;;32.00;29.75;;;;;4.29;68.21;100632.69;5053766;28;45352;-65
2022/12/04 07:02:46;;;;;;;;;35.75;30.25;;;;;4.18;68.10;100598.56;5054050;28;45412;-65
2022/12/04 07:05:12;;;;;;;;;38.75;35.50;;;;;4.07;67.42;100558.22;5048866;28;46274;-65
2022/12/04 07:07:38;;;;;;;;;29.50;26.75;;;;;4.50;67.45;100627.72;5067563;28;45424;-65
2022/12/04 07:10:03;;;;;;;;;45.50;38.75;;;;;4.47;67.78;100626.19;5071713;27;45344;-62
2022/12/04 07:12:29;;;;;;;;;43.75;34.00;;;;;4.24;67.28;100588.03;5062536;28;45314;-64
2022/12/04 07:14:54;;;;;;;;;48.75;38.50;;;;;4.45;67.67;100626.38;5053815;28;46181;-64
2022/12/04 07:17:20;;;;;;;;;40.00;34.00;;;;;4.26;67.13;100594.16;5052959;28;45323;-64
2022/12/04 07:19:45;;;;;;;;;37.50;31.25;;;;;4.52;67.32;100622.94;5056218;28;45417;-64
2022/12/04 07:22:11;;;;;;;;;36.75;33.75;;;;;4.57;67.06;100618.69;5057547;28;45378;-66
2022/12/04 07:24:36;;;;;;;;;42.00;34.25;;;;;4.57;67.11;100634.13;5057277;28;46457;-63
2022/12/04 07:27:02;;;;;;;;;49.50;37.75;;;;;4.54;67.73;100634.50;5039052;28;45446;-64
2022/12/04 07:29:28;;;;;;;;;37.25;33.75;;;;;4.55;68.12;100638.91;5057655;28;45418;-64
2022/12/04 07:31:53;;;;;;;;;49.75;37.00;;;;;4.57;67.52;100628.69;5057467;28;45410;-63
2022/12/04 07:34:18;;;;;;;;;39.00;35.25;;;;;4.59;66.79;100634.84;5074078;28;46147;-64
2022/12/04 07:36:44;;;;;;;;;45.00;35.00;;;;;4.54;66.97;100631.78;5077452;27;45411;-64
2022/12/04 07:39:09;;;;;;;;;44.25;36.50;;;;;4.59;67.30;100641.09;5077513;28;45388;-64
2022/12/04 07:41:35;;;;;;;;;37.25;32.50;;;;;3.89;67.38;100517.69;5077727;28;45426;-63
2022/12/04 07:44:00;;;;;;;;;42.25;34.75;;;;;4.57;68.01;100625.97;5075559;28;46301;-63
2022/12/04 07:46:26;;;;;;;;;42.25;38.25;;;;;4.68;67.88;100627.47;5077191;27;45324;-63
2022/12/04 07:48:54;;;;;;;;;42.00;37.00;;;;;4.61;67.18;100635.50;5077382;28;45614;-63
2022/12/04 07:51:21;;;;;;;;;43.25;36.75;;;;;4.56;67.26;100638.75;5077263;27;45338;-63
2022/12/04 07:53:46;;;;;;;;;46.25;35.75;;;;;4.54;67.82;100621.75;5076963;27;46481;-64
2022/12/04 07:56:12;;;;;;;;;48.75;40.75;;;;;4.55;68.05;100628.03;5058538;28;45493;-65
2022/12/04 07:58:38;;;;;;;;;45.25;40.50;;;;;4.29;67.91;100593.81;5076959;27;45391;-64
2022/12/04 08:01:15;;;;;;;;;60.50;42.75;;;;;4.43;68.12;100593.06;5075795;28;45488;-65
2022/12/04 08:03:41;;;;;;;;;53.60;36.60;;;;;4.67;68.08;100620.34;5076689;27;46223;-64
2022/12/04 08:06:06;;;;;;;;;45.25;37.50;;;;;4.71;66.86;100621.69;5092367;27;45412;-64
2022/12/04 08:08:32;;;;;;;;;55.00;40.75;;;;;4.62;67.93;100612.72;5075904;28;45545;-64
2022/12/04 08:10:58;;;;;;;;;52.75;36.75;;;;;4.72;67.92;100623.38;5075392;28;45417;-64
2022/12/04 08:13:24;;;;;;;;;54.25;42.50;;;;;4.62;67.18;100618.16;5076708;27;45411;-64
2022/12/04 08:15:49;;;;;;;;;50.50;41.50;;;;;4.64;67.52;100605.22;5076887;27;45313;-63
2022/12/04 08:18:15;;;;;;;;;49.00;41.00;;;;;4.62;67.17;100610.00;5041668;28;45420;-63
2022/12/04 08:20:40;;;;;;;;;44.75;41.00;;;;;4.67;67.33;100613.03;5076904;28;45499;-64
2022/12/04 08:23:06;;;;;;;;;55.75;39.75;;;;;4.63;67.30;100613.59;5076279;27;45992;-64
2022/12/04 08:25:31;;;;;;;;;55.00;40.75;;;;;4.69;67.17;100612.88;5076487;27;45277;-64
2022/12/04 08:27:57;;;;;;;;;43.75;35.50;;;;;4.57;66.79;100583.34;5076735;28;45400;-63
2022/12/04 08:30:22;;;;;;;;;46.25;40.00;;;;;4.60;67.73;100588.41;5076346;27;45432;-63
2022/12/04 08:32:48;;;;;;;;;45.75;37.75;;;;;4.81;67.05;100624.19;5018358;27;46083;-64
2022/12/04 08:35:13;;;;;;;;;52.75;40.50;;;;;4.81;66.78;100619.59;5059413;28;45414;-63
2022/12/04 08:37:39;;;;;;;;;44.50;37.25;;;;;4.69;66.38;100594.66;5076610;27;45366;-65
2022/12/04 08:40:05;;;;;;;;;53.75;40.00;;;;;4.81;67.49;100629.63;5075588;28;45482;-63
2022/12/04 08:42:30;;;;;;;;;42.20;37.40;;;;;4.84;67.38;100630.13;5057590;28;47692;-64
2022/12/04 08:44:56;;;;;;;;;48.50;39.75;;;;;4.85;67.17;100636.41;5091602;27;45676;-64
2022/12/04 08:47:21;;;;;;;;;52.25;40.50;;;;;4.83;67.14;100633.03;5063813;28;45363;-69
2022/12/04 08:49:47;;;;;;;;;49.75;41.25;;;;;4.87;66.63;100631.66;5054692;28;45544;-62
2022/12/04 08:52:12;;;;;;;;;33.00;29.75;;;;;4.94;67.29;100645.38;5055228;28;46114;-60
2022/12/04 08:54:38;;;;;;;;;51.25;39.00;;;;;4.96;66.82;100638.75;5053771;28;45349;-63
2022/12/04 08:57:03;;;;;;;;;44.25;38.75;;;;;4.86;67.12;100643.56;5055661;28;45309;-63
2022/12/04 08:59:29;;;;;;;;;48.25;38.75;;;;;4.93;66.51;100646.41;5055652;28;45250;-63
2022/12/04 09:01:54;;;;;;;;;42.75;33.25;;;;;4.88;66.59;100647.81;5037302;28;45749;-62
2022/12/04 09:04:20;;;;;;;;;47.00;40.25;;;;;4.84;66.74;100632.84;5053635;28;45403;-64
2022/12/04 09:06:45;;;;;;;;;55.50;41.00;;;;;4.89;66.86;100637.75;5053995;28;45313;-61
2022/12/04 09:09:11;;;;;;;;;48.75;39.00;;;;;4.93;66.90;100641.81;5055866;28;45511;-63
2022/12/04 09:11:37;;;;;;;;;47.00;40.75;;;;;4.85;66.39;100631.81;5054898;28;45615;-62
2022/12/04 09:14:02;;;;;;;;;58.50;43.50;;;;;4.95;66.62;100639.78;5054096;28;45473;-63
2022/12/04 09:16:28;;;;;;;;;42.50;38.50;;;;;4.71;66.34;100600.78;5055348;28;45370;-64
2022/12/04 09:18:54;;;;;;;;;47.75;42.00;;;;;4.67;66.41;100595.88;5054006;28;45559;-63
2022/12/04 09:21:20;;;;;;;;;56.25;44.00;;;;;4.81;66.39;100624.19;5030105;28;47526;-61
2022/12/04 09:23:45;;;;;;;;;46.50;37.00;;;;;4.92;66.71;100640.13;5074063;28;46087;-63
2022/12/04 09:26:22;;;;;;;;;49.25;39.25;;;;;4.83;66.60;100641.19;5074295;28;45397;-61
2022/12/04 09:28:48;;;;;;;;;48.50;37.25;;;;;4.82;67.04;100629.47;5075539;27;45464;-61
2022/12/04 09:31:14;;;;;;;;;60.75;41.50;;;;;4.87;67.43;100628.94;5074755;27;46657;-61
2022/12/04 09:33:39;;;;;;;;;54.00;40.50;;;;;4.96;67.46;100630.59;5070925;27;45353;-61
2022/12/04 09:36:05;;;;;;;;;54.25;38.25;;;;;4.94;66.33;100627.19;5055081;28;45371;-62
2022/12/04 09:38:30;;;;;;;;;60.00;44.50;;;;;4.99;66.56;100632.97;5055094;28;45315;-63
2022/12/04 09:41:27;;;;;;;;;54.00;39.00;;;;;4.91;67.07;100624.81;5063549;28;47171;-62
2022/12/04 09:44:00;;;;;;;;;50.80;41.80;;;;;4.92;65.88;100612.09;5053327;28;45430;-61
2022/12/04 09:46:37;;;;;;;;;49.00;39.40;;;;;5.01;66.05;100647.22;5051960;28;45916;-61
2022/12/04 09:49:09;;;;;;;;;60.50;44.00;;;;;4.82;65.73;100596.84;5052762;28;45413;-61
2022/12/04 09:51:34;;;;;;;;;59.25;44.50;;;;;4.81;66.61;100597.00;5036009;28;46239;-60
2022/12/04 09:54:04;;;;;;;;;51.00;40.75;;;;;5.07;66.29;100647.53;5040844;28;45662;-60
2022/12/04 09:56:30;;;;;;;;;42.75;37.25;;;;;5.11;66.95;100644.28;5073881;27;45415;-60
2022/12/04 09:59:10;;;;;;;;;45.00;34.75;;;;;5.09;66.75;100642.75;5051075;28;45384;-60
2022/12/04 10:01:42;;;;;;;;;42.50;34.75;;;;;5.14;65.89;100638.47;5069281;28;45565;-60
2022/12/04 10:04:09;;;;;;;;;71.50;53.50;;;;;5.21;66.86;100632.31;5068800;28;45438;-61
2022/12/04 10:06:43;;;;;;;;;49.75;38.25;;;;;5.11;66.35;100621.66;5061440;28;45426;-61
2022/12/04 10:09:29;;;;;;;;;56.25;43.00;;;;;5.20;66.81;100633.34;5073619;28;45922;-61
2022/12/04 10:12:29;;;;;;;;;49.25;40.00;;;;;5.27;65.79;100632.47;5070849;28;46632;-61
2022/12/04 10:14:58;;;;;;;;;41.80;38.00;;;;;5.29;66.19;100622.22;5072080;28;45451;-62
2022/12/04 10:17:42;;;;;;;;;54.20;40.60;;;;;5.25;66.20;100634.53;5073706;27;45404;-60
2022/12/04 10:20:24;;;;;;;;;47.75;41.00;;;;;5.15;65.75;100614.84;5061669;27;45423;-61
2022/12/04 10:23:23;;;;;;;;;48.50;39.25;;;;;5.04;66.45;100598.91;5035772;28;47285;-60
2022/12/04 10:25:49;;;;;;;;;49.00;41.80;;;;;5.19;66.78;100623.50;5056747;28;45363;-66
2022/12/04 10:28:15;;;;;;;;;54.25;42.50;;;;;5.11;65.74;100625.25;5072364;28;45301;-59
2022/12/04 10:30:40;;;;;;;;;42.50;34.25;;;;;5.17;66.11;100620.13;5073266;27;45641;-58
2022/12/04 10:33:32;;;;;;;;;57.50;41.50;;;;;5.13;66.31;100611.47;5071457;28;46407;-58
2022/12/04 10:35:58;;;;;;;;;55.00;42.50;;;;;5.22;65.99;100615.81;5068425;28;45380;-61
2022/12/04 10:38:43;;;;;;;;;60.00;43.75;;;;;5.04;66.23;100596.19;5072471;28;45895;-60
2022/12/04 10:41:26;;;;;;;;;57.00;40.75;;;;;5.21;66.88;100621.44;5072722;27;45470;-59
2022/12/04 10:43:52;;;;;;;;;48.25;41.00;;;;;5.27;66.75;100621.56;5072764;27;46322;-60
2022/12/04 10:46:19;;;;;;;;;57.25;41.75;;;;;5.20;66.84;100592.53;5067674;28;45569;-59
2022/12/04 10:48:46;;;;;;;;;48.75;39.50;;;;;5.13;65.57;100573.38;5052983;28;45351;-60
2022/12/04 10:51:14;;;;;;;;;46.25;35.25;;;;;4.80;66.06;100521.91;5051408;28;45390;-61
2022/12/04 10:53:39;;;;;;;;;50.75;41.25;;;;;5.39;65.62;100615.72;5054619;28;46417;-61
2022/12/04 10:56:16;;;;;;;;;49.25;40.00;;;;;5.36;66.08;100635.13;5054333;28;45442;-60
2022/12/04 10:58:43;;;;;;;;;47.00;37.00;;;;;5.11;65.58;100589.00;5039032;28;45481;-59
2022/12/04 11:01:11;;;;;;;;;53.25;43.00;;;;;5.29;66.60;100616.78;5074660;28;45903;-59
2022/12/04 11:03:37;;;;;;;;;56.25;42.50;;;;;5.25;66.40;100599.16;5075781;27;45385;-60
2022/12/04 11:06:04;;;;;;;;;46.25;39.00;;;;;5.29;66.79;100602.34;5057925;28;45544;-60
2022/12/04 11:08:38;;;;;;;;;51.50;41.75;;;;;5.35;66.55;100606.22;5074633;28;45391;-60
2022/12/04 11:11:05;;;;;;;;;54.50;41.25;;;;;5.41;66.28;100610.94;5068572;27;45660;-58
2022/12/04 11:13:31;;;;;;;;;61.25;41.25;;;;;5.43;66.24;100625.19;5054210;28;45992;-59
2022/12/04 11:15:57;;;;;;;;;51.75;37.50;;;;;5.42;65.56;100607.19;5054405;28;45785;-58
2022/12/04 11:18:24;;;;;;;;;53.25;38.75;;;;;5.48;66.36;100613.75;5055916;28;45360;-61
2022/12/04 11:20:55;;;;;;;;;48.00;39.50;;;;;5.51;65.67;100600.63;5055831;28;45528;-60
2022/12/04 11:23:21;;;;;;;;;57.25;40.00;;;;;5.54;65.86;100596.69;5022253;28;45510;-60
2022/12/04 11:25:51;;;;;;;;;53.75;41.25;;;;;5.46;66.16;100597.63;5052547;28;45405;-59
2022/12/04 11:28:19;;;;;;;;;44.60;38.40;;;;;5.49;66.34;100597.25;5055812;28;45627;-59
2022/12/04 11:30:53;;;;;;;;;51.75;42.00;;;;;5.52;66.87;100596.03;5045435;28;45477;-60
2022/12/04 11:33:31;;;;;;;;;50.75;41.75;;;;;5.54;66.05;100603.00;5057741;28;45697;-60
2022/12/04 11:35:59;;;;;;;;;54.60;42.60;;;;;5.59;66.47;100602.44;5057478;28;45477;-58